createdAt,value
2022-08-06T00:02:22.501Z,11.49
2022-08-06T00:04:52.864Z,11.56
2022-08-06T00:07:22.529Z,11.58
2022-08-06T00:10:00.222Z,11.56
2022-08-06T00:12:29.630Z,11.55
2022-08-06T00:14:56.658Z,11.53
2022-08-06T00:17:24.333Z,11.51
2022-08-06T00:19:58.589Z,11.59
2022-08-06T00:22:27.622Z,11.61
2022-08-06T00:24:55.591Z,11.56
2022-08-06T00:27:24.908Z,11.56
2022-08-06T00:29:57.113Z,11.51
2022-08-06T00:32:32.151Z,11.40
2022-08-06T00:34:58.692Z,11.38
2022-08-06T00:37:28.888Z,11.34
2022-08-06T00:40:23.849Z,11.44
2022-08-06T00:42:54.674Z,11.49
2022-08-06T00:45:23.726Z,11.46
2022-08-06T00:48:03.324Z,11.50
2022-08-06T00:50:35.082Z,11.50
2022-08-06T00:53:03.656Z,11.46
2022-08-06T00:55:32.169Z,11.49
2022-08-06T00:58:05.103Z,11.48
2022-08-06T01:00:36.867Z,11.55
2022-08-06T01:03:05.466Z,11.58
2022-08-06T01:06:04.807Z,11.56
2022-08-06T01:08:19.349Z,11.53
2022-08-06T01:10:45.777Z,11.47
2022-08-06T01:13:23.263Z,11.47
2022-08-06T01:16:29.568Z,11.42
2022-08-06T01:19:50.831Z,11.44
2022-08-06T01:22:31.412Z,11.45
2022-08-06T01:25:12.686Z,11.41
2022-08-06T01:27:57.042Z,11.39
2022-08-06T01:30:28.819Z,11.38
2022-08-06T01:33:10.656Z,11.39
2022-08-06T01:35:54.853Z,11.41
2022-08-06T01:38:36.888Z,11.35
2022-08-06T01:41:14.072Z,11.29
2022-08-06T01:44:06.588Z,11.32
2022-08-06T01:46:29.304Z,11.30
2022-08-06T01:48:58.842Z,11.27
2022-08-06T01:52:13.812Z,11.27
2022-08-06T01:54:25.592Z,11.21
2022-08-06T01:57:00.316Z,11.08
2022-08-06T01:59:38.759Z,11.07
2022-08-06T02:02:08.857Z,11.09
2022-08-06T02:04:40.722Z,11.05
2022-08-06T02:08:34.122Z,11.02
2022-08-06T02:09:59.691Z,10.92
2022-08-06T02:12:29.018Z,10.95
2022-08-06T02:15:01.939Z,10.92
2022-08-06T02:18:04.500Z,11.00
2022-08-06T02:20:37.779Z,10.89
2022-08-06T02:23:08.702Z,10.80
2022-08-06T02:25:40.734Z,10.85
2022-08-06T02:28:09.688Z,10.89
2022-08-06T02:30:42.514Z,10.74
2022-08-06T02:33:10.889Z,10.62
2022-08-06T02:35:43.498Z,10.61
2022-08-06T02:38:16.112Z,10.48
2022-08-06T02:40:47.413Z,10.39
2022-08-06T02:43:19.740Z,10.38
2022-08-06T02:45:59.301Z,10.49
2022-08-06T02:48:47.026Z,10.55
2022-08-06T02:52:11.832Z,10.61
2022-08-06T02:54:08.158Z,10.63
2022-08-06T02:56:42.769Z,10.65
2022-08-06T02:59:16.229Z,10.68
2022-08-06T03:01:52.310Z,10.64
2022-08-06T03:04:32.512Z,10.65
2022-08-06T03:07:06.614Z,10.65
2022-08-06T03:09:53.318Z,10.73
2022-08-06T03:12:30.500Z,10.73
2022-08-06T03:15:07.312Z,10.73
2022-08-06T03:17:40.391Z,10.64
2022-08-06T03:20:17.499Z,10.62
2022-08-06T03:22:47.786Z,10.56
2022-08-06T03:25:16.422Z,10.52
2022-08-06T03:27:45.482Z,10.51
2022-08-06T03:30:32.152Z,10.48
2022-08-06T03:33:07.633Z,10.42
2022-08-06T03:35:54.722Z,10.27
2022-08-06T03:38:29.049Z,10.26
2022-08-06T03:40:57.977Z,10.19
2022-08-06T03:43:28.562Z,10.14
2022-08-06T03:46:05.004Z,10.11
2022-08-06T03:48:41.875Z,10.11
2022-08-06T03:51:14.257Z,10.11
2022-08-06T03:53:46.888Z,10.15
2022-08-06T03:56:22.319Z,10.20
2022-08-06T03:59:00.158Z,10.18
2022-08-06T04:01:29.719Z,10.13
2022-08-06T04:03:58.360Z,10.21
2022-08-06T04:06:27.423Z,10.29
2022-08-06T04:08:55.051Z,10.34
2022-08-06T04:12:13.787Z,10.36
2022-08-06T04:14:09.991Z,10.41
2022-08-06T04:16:37.965Z,10.41
2022-08-06T04:19:08.594Z,10.46
2022-08-06T04:23:00.290Z,10.40
2022-08-06T04:24:23.573Z,10.34
2022-08-06T04:26:59.752Z,10.28
2022-08-06T04:29:50.836Z,10.34
2022-08-06T04:32:19.489Z,10.47
2022-08-06T04:36:08.272Z,10.52
2022-08-06T04:37:40.665Z,10.53
2022-08-06T04:40:14.835Z,10.58
2022-08-06T04:42:42.216Z,10.73
2022-08-06T04:46:17.770Z,10.81
2022-08-06T04:47:57.247Z,10.84
2022-08-06T04:50:24.709Z,10.92
2022-08-06T04:52:52.974Z,11.07
2022-08-06T04:55:24.359Z,11.22
2022-08-06T04:58:08.162Z,11.43
2022-08-06T05:00:59.882Z,11.62
2022-08-06T05:04:03.292Z,11.78
2022-08-06T05:06:23.634Z,12.03
2022-08-06T05:08:55.703Z,12.19
2022-08-06T05:11:58.586Z,12.36
2022-08-06T05:14:53.371Z,12.71
2022-08-06T05:17:23.351Z,12.97
2022-08-06T05:20:00.098Z,13.14
2022-08-06T05:22:51.881Z,13.29
2022-08-06T05:25:22.418Z,13.51
2022-08-06T05:28:09.879Z,13.58
2022-08-06T05:30:49.838Z,13.57
2022-08-06T05:33:30.806Z,13.42
2022-08-06T05:36:01.497Z,13.70
2022-08-06T05:38:31.944Z,13.81
2022-08-06T05:41:00.038Z,13.97
2022-08-06T05:43:58.024Z,14.02
2022-08-06T05:46:24.986Z,14.25
2022-08-06T05:49:12.027Z,14.33
2022-08-06T05:52:23.867Z,14.32
2022-08-06T05:55:02.421Z,14.41
2022-08-06T05:57:41.263Z,14.38
2022-08-06T06:00:32.854Z,14.66
2022-08-06T06:03:02.415Z,14.65
2022-08-06T06:06:04.878Z,14.85
2022-08-06T06:08:38.020Z,15.15
2022-08-06T06:11:08.696Z,15.17
2022-08-06T06:13:40.313Z,15.15
2022-08-06T06:16:54.688Z,15.29
2022-08-06T06:19:36.916Z,15.40
2022-08-06T06:22:17.142Z,15.45
2022-08-06T06:24:50.625Z,15.38
2022-08-06T06:27:35.649Z,15.57
2022-08-06T06:30:11.087Z,15.50
2022-08-06T06:32:51.386Z,15.70
2022-08-06T06:35:57.041Z,15.50
2022-08-06T06:38:48.009Z,15.78
2022-08-06T06:41:33.404Z,15.85
2022-08-06T06:45:03.104Z,15.37
2022-08-06T06:47:19.754Z,15.28
2022-08-06T06:50:07.207Z,15.22
2022-08-06T06:52:40.283Z,15.16
2022-08-06T06:55:18.804Z,15.20
2022-08-06T06:57:52.224Z,15.25
2022-08-06T07:00:43.739Z,15.66
2022-08-06T07:03:09.764Z,15.92
2022-08-06T07:06:06.309Z,15.93
2022-08-06T07:08:30.271Z,16.15
2022-08-06T07:11:00.304Z,16.33
2022-08-06T07:13:47.023Z,16.55
2022-08-06T07:16:34.522Z,16.51
2022-08-06T07:19:04.075Z,16.39
2022-08-06T07:21:31.555Z,16.22
2022-08-06T07:24:07.449Z,16.03
2022-08-06T07:26:37.069Z,16.30
2022-08-06T07:29:48.821Z,16.05
2022-08-06T07:32:04.016Z,16.27
2022-08-06T07:34:33.353Z,16.33
2022-08-06T07:37:01.970Z,16.48
2022-08-06T07:39:39.722Z,16.69
2022-08-06T07:42:13.109Z,16.84
2022-08-06T07:44:56.331Z,16.46
2022-08-06T07:47:54.432Z,16.06
2022-08-06T07:50:15.726Z,16.42
2022-08-06T07:52:44.683Z,16.76
2022-08-06T07:55:14.215Z,16.66
2022-08-06T07:57:55.704Z,16.71
2022-08-06T08:00:27.394Z,16.74
2022-08-06T08:03:42.968Z,16.85
2022-08-06T08:06:18.707Z,17.09
2022-08-06T08:08:51.777Z,16.97
2022-08-06T08:11:20.532Z,16.87
2022-08-06T08:14:04.597Z,16.73
2022-08-06T08:16:38.412Z,17.05
2022-08-06T08:19:35.249Z,16.66
2022-08-06T08:22:06.631Z,16.55
2022-08-06T08:24:35.546Z,16.77
2022-08-06T08:27:21.856Z,16.87
2022-08-06T08:29:54.535Z,17.18
2022-08-06T08:32:21.928Z,17.17
2022-08-06T08:34:53.423Z,17.34
2022-08-06T08:37:21.131Z,17.43
2022-08-06T08:39:48.250Z,17.39
2022-08-06T08:42:36.725Z,17.62
2022-08-06T08:45:05.159Z,17.57
2022-08-06T08:47:47.058Z,17.15
2022-08-06T08:50:26.483Z,17.32
2022-08-06T08:53:04.465Z,17.20
2022-08-06T08:57:09.513Z,17.45
2022-08-06T08:59:01.613Z,17.26
2022-08-06T09:01:08.337Z,17.24
2022-08-06T09:07:36.663Z,17.19
2022-08-06T09:10:12.320Z,17.21
2022-08-06T09:12:44.992Z,17.55
2022-08-06T09:15:14.458Z,17.97
2022-08-06T09:18:11.547Z,17.97
2022-08-06T09:20:31.285Z,18.03
2022-08-06T09:22:58.880Z,18.19
2022-08-06T09:25:51.610Z,17.95
2022-08-06T09:28:35.547Z,18.28
2022-08-06T09:31:21.236Z,18.56
2022-08-06T09:34:30.471Z,18.84
2022-08-06T09:36:56.706Z,18.47
2022-08-06T09:39:46.358Z,18.59
2022-08-06T09:42:38.851Z,18.27
2022-08-06T09:45:15.228Z,18.66
2022-08-06T09:47:43.654Z,18.46
2022-08-06T09:50:14.835Z,18.40
2022-08-06T09:53:02.291Z,18.04
2022-08-06T09:55:38.237Z,17.80
2022-08-06T09:58:08.116Z,17.06
2022-08-06T10:00:38.091Z,16.21
2022-08-06T10:04:05.040Z,15.68
2022-08-06T10:06:10.337Z,15.85
2022-08-06T10:08:38.772Z,15.69
2022-08-06T10:11:07.302Z,15.45
2022-08-06T10:13:43.789Z,15.67
2022-08-06T10:16:30.971Z,15.54
2022-08-06T10:19:11.556Z,15.77
2022-08-06T10:21:47.173Z,15.67
2022-08-06T10:24:26.056Z,15.59
2022-08-06T10:27:07.963Z,15.64
2022-08-06T10:29:53.662Z,15.77
2022-08-06T10:32:54.112Z,16.05
2022-08-06T10:35:25.661Z,16.30
2022-08-06T10:37:57.520Z,16.45
2022-08-06T10:40:30.535Z,16.94
2022-08-06T10:42:59.865Z,16.93
2022-08-06T10:45:27.871Z,16.76
2022-08-06T10:48:58.629Z,16.69
2022-08-06T10:51:01.202Z,16.90
2022-08-06T10:54:01.388Z,17.21
2022-08-06T10:56:18.010Z,17.31
2022-08-06T10:58:49.446Z,17.87
2022-08-06T11:01:36.439Z,17.90
2022-08-06T11:04:32.435Z,18.09
2022-08-06T11:08:01.748Z,18.44
2022-08-06T11:10:27.041Z,18.98
2022-08-06T11:13:52.392Z,19.29
2022-08-06T11:16:28.580Z,19.48
2022-08-06T11:19:07.303Z,19.49
2022-08-06T11:21:59.043Z,19.24
2022-08-06T11:24:26.488Z,18.82
2022-08-06T11:27:01.281Z,19.09
2022-08-06T11:29:55.248Z,19.26
2022-08-06T11:32:44.972Z,19.11
2022-08-06T11:35:48.887Z,18.90
2022-08-06T11:38:53.476Z,19.34
2022-08-06T11:41:50.811Z,18.87
2022-08-06T11:44:18.258Z,19.03
2022-08-06T11:46:48.797Z,19.02
2022-08-06T11:49:43.607Z,19.08
2022-08-06T11:52:40.406Z,19.22
2022-08-06T11:55:23.829Z,19.55
2022-08-06T11:58:21.156Z,19.82
2022-08-06T12:01:03.546Z,20.06
2022-08-06T12:03:48.516Z,20.31
2022-08-06T12:06:26.190Z,19.85
2022-08-06T12:09:21.022Z,19.56
2022-08-06T12:11:50.713Z,18.70
2022-08-06T12:14:49.148Z,18.78
2022-08-06T12:17:19.318Z,18.95
2022-08-06T12:20:01.427Z,18.96
2022-08-06T12:22:30.945Z,19.27
2022-08-06T12:25:10.670Z,19.74
2022-08-06T12:27:43.236Z,20.10
2022-08-06T12:30:16.247Z,20.07
2022-08-06T12:33:03.458Z,19.78
2022-08-06T12:35:30.389Z,19.73
2022-08-06T12:37:59.740Z,19.89
2022-08-06T12:40:29.130Z,19.91
2022-08-06T12:43:14.948Z,19.94
2022-08-06T12:46:06.343Z,20.20
2022-08-06T12:48:31.298Z,20.54
2022-08-06T12:51:14.310Z,20.42
2022-08-06T12:53:53.612Z,20.29
2022-08-06T12:56:29.183Z,20.04
2022-08-06T12:58:57.228Z,19.94
2022-08-06T13:02:07.492Z,20.07
2022-08-06T13:04:16.739Z,20.00
2022-08-06T13:06:44.295Z,20.08
2022-08-06T13:09:15.716Z,20.13
2022-08-06T13:11:42.613Z,20.08
2022-08-06T13:14:18.486Z,20.08
2022-08-06T13:16:56.262Z,20.06
2022-08-06T13:19:32.541Z,20.34
2022-08-06T13:22:07.069Z,19.90
2022-08-06T13:24:35.422Z,20.41
2022-08-06T13:27:06.032Z,20.63
2022-08-06T13:30:35.630Z,20.87
2022-08-06T13:32:33.282Z,20.32
2022-08-06T13:35:11.326Z,20.12
2022-08-06T13:37:55.944Z,20.27
2022-08-06T13:40:47.405Z,20.75
2022-08-06T13:43:50.773Z,20.37
2022-08-06T13:46:28.394Z,20.12
2022-08-06T13:49:01.621Z,19.97
2022-08-06T13:51:34.560Z,20.14
2022-08-06T13:54:04.284Z,20.44
2022-08-06T13:56:41.057Z,19.86
2022-08-06T13:59:08.224Z,19.94
2022-08-06T14:01:45.838Z,19.49
2022-08-06T14:04:14.353Z,19.01
2022-08-06T14:06:44.828Z,19.03
2022-08-06T14:09:19.331Z,19.21
2022-08-06T14:11:54.014Z,19.64
2022-08-06T14:14:22.445Z,19.86
2022-08-06T14:16:50.073Z,19.60
2022-08-06T14:20:15.543Z,19.55
2022-08-06T14:22:04.148Z,19.54
2022-08-06T14:24:36.693Z,19.14
2022-08-06T14:27:15.194Z,19.08
2022-08-06T14:30:26.601Z,18.79
2022-08-06T14:32:32.208Z,18.52
2022-08-06T14:35:03.348Z,18.34
2022-08-06T14:37:43.490Z,18.69
2022-08-06T14:40:32.429Z,18.98
2022-08-06T14:43:18.173Z,19.31
2022-08-06T14:45:44.592Z,19.22
2022-08-06T14:48:12.049Z,19.43
2022-08-06T14:50:42.019Z,19.35
2022-08-06T14:53:16.036Z,19.44
2022-08-06T14:56:06.836Z,18.64
2022-08-06T14:58:30.551Z,18.12
2022-08-06T15:00:57.339Z,18.11
2022-08-06T15:03:27.690Z,18.12
2022-08-06T15:06:04.026Z,18.31
2022-08-06T15:08:34.431Z,18.49
2022-08-06T15:11:06.020Z,18.54
2022-08-06T15:13:41.082Z,18.42
2022-08-06T15:16:11.296Z,18.49
2022-08-06T15:19:21.042Z,18.42
2022-08-06T15:21:51.295Z,18.66
2022-08-06T15:24:21.969Z,19.06
2022-08-06T15:26:51.844Z,19.26
2022-08-06T15:29:27.437Z,19.35
2022-08-06T15:32:08.449Z,19.52
2022-08-06T15:34:44.671Z,19.43
2022-08-06T15:37:21.679Z,18.89
2022-08-06T15:40:03.926Z,18.86
2022-08-06T15:42:33.965Z,18.90
2022-08-06T15:45:00.320Z,18.80
2022-08-06T15:47:32.632Z,18.87
2022-08-06T15:50:08.051Z,18.73
2022-08-06T15:52:37.433Z,18.62
2022-08-06T15:55:15.061Z,18.87
2022-08-06T15:58:04.838Z,18.93
2022-08-06T16:00:29.787Z,18.96
2022-08-06T16:02:56.239Z,18.98
2022-08-06T16:05:32.391Z,18.97
2022-08-06T16:08:10.900Z,18.86
2022-08-06T16:10:57.611Z,18.84
2022-08-06T16:13:23.975Z,18.88
2022-08-06T16:15:53.163Z,18.89
2022-08-06T16:18:30.213Z,18.88
2022-08-06T16:21:02.673Z,18.99
2022-08-06T16:23:57.482Z,19.06
2022-08-06T16:26:30.124Z,19.20
2022-08-06T16:29:07.744Z,18.95
2022-08-06T16:31:37.756Z,18.98
2022-08-06T16:34:14.298Z,18.68
2022-08-06T16:36:43.241Z,18.70
2022-08-06T16:39:12.481Z,18.60
2022-08-06T16:41:59.117Z,18.63
2022-08-06T16:44:34.172Z,18.60
2022-08-06T16:47:05.053Z,18.38
2022-08-06T16:50:17.684Z,18.10
2022-08-06T16:52:44.953Z,18.05
2022-08-06T16:57:57.500Z,18.10
2022-08-06T17:00:59.602Z,18.16
2022-08-06T17:03:11.611Z,18.29
2022-08-06T17:05:44.924Z,18.37
2022-08-06T17:08:16.922Z,17.96
2022-08-06T17:10:43.944Z,18.01
2022-08-06T17:13:10.307Z,18.10
2022-08-06T17:15:37.623Z,18.08
2022-08-06T17:18:04.879Z,18.07
2022-08-06T17:20:31.462Z,18.10
2022-08-06T17:23:00.240Z,18.17
2022-08-06T17:25:50.781Z,18.20
2022-08-06T17:28:14.467Z,18.20
2022-08-06T17:30:40.934Z,18.17
2022-08-06T17:33:08.409Z,18.12
2022-08-06T17:36:29.701Z,18.10
2022-08-06T17:38:23.683Z,18.10
2022-08-06T17:40:50.251Z,18.18
2022-08-06T17:43:37.829Z,18.16
2022-08-06T17:46:26.800Z,18.16
2022-08-06T17:48:49.838Z,18.18
2022-08-06T17:51:21.173Z,18.16
2022-08-06T17:53:52.455Z,18.02
2022-08-06T17:56:29.529Z,18.09
2022-08-06T17:59:17.018Z,17.95
2022-08-06T18:01:46.709Z,17.84
2022-08-06T18:04:21.787Z,17.92
2022-08-06T18:06:55.470Z,17.84
2022-08-06T18:10:12.113Z,17.92
2022-08-06T18:12:11.572Z,17.84
2022-08-06T18:14:37.991Z,17.85
2022-08-06T18:17:06.883Z,17.73
2022-08-06T18:19:34.430Z,17.71
2022-08-06T18:22:12.048Z,17.53
2022-08-06T18:24:50.367Z,17.54
2022-08-06T18:27:53.292Z,17.50
2022-08-06T18:30:04.991Z,17.45
2022-08-06T18:32:32.785Z,17.46
2022-08-06T18:35:04.315Z,17.44
2022-08-06T18:38:00.057Z,17.50
2022-08-06T18:40:38.551Z,17.41
2022-08-06T18:43:06.159Z,17.11
2022-08-06T18:45:36.810Z,16.97
2022-08-06T18:48:25.395Z,16.81
2022-08-06T18:50:56.735Z,16.74
2022-08-06T18:54:00.191Z,16.67
2022-08-06T18:56:10.496Z,16.61
2022-08-06T18:58:43.513Z,16.58
2022-08-06T19:01:20.761Z,16.66
2022-08-06T19:03:50.232Z,16.57
2022-08-06T19:06:17.668Z,16.45
2022-08-06T19:08:44.222Z,16.39
2022-08-06T19:11:11.080Z,16.30
2022-08-06T19:14:16.949Z,16.19
2022-08-06T19:16:25.794Z,16.10
2022-08-06T19:18:57.520Z,16.05
2022-08-06T19:21:25.973Z,15.98
2022-08-06T19:24:03.143Z,15.92
2022-08-06T19:26:31.608Z,15.88
2022-08-06T19:28:58.160Z,15.73
2022-08-06T19:31:42.085Z,15.65
2022-08-06T19:34:14.536Z,15.61
2022-08-06T19:36:43.415Z,15.50
2022-08-06T19:39:54.300Z,15.44
2022-08-06T19:42:01.163Z,15.44
2022-08-06T19:44:35.949Z,15.40
2022-08-06T19:47:02.961Z,15.31
2022-08-06T19:49:41.003Z,15.21
2022-08-06T19:52:08.917Z,15.14
2022-08-06T19:54:36.207Z,15.06
2022-08-06T19:57:06.361Z,15.03
2022-08-06T20:00:48.662Z,15.03
2022-08-06T20:02:21.514Z,14.91
2022-08-06T20:04:56.230Z,14.90
2022-08-06T20:07:24.974Z,14.90
2022-08-06T20:10:01.203Z,14.90
2022-08-06T20:12:29.881Z,14.80
2022-08-06T20:14:59.055Z,14.74
2022-08-06T20:17:29.607Z,14.75
2022-08-06T20:20:07.520Z,14.70
2022-08-06T20:22:39.531Z,14.68
2022-08-06T20:25:17.885Z,14.61
2022-08-06T20:29:09.356Z,14.70
2022-08-06T20:30:33.817Z,14.61
2022-08-06T20:33:01.624Z,14.52
2022-08-06T20:35:30.767Z,14.47
2022-08-06T20:38:03.231Z,14.38
2022-08-06T20:41:26.126Z,14.33
2022-08-06T20:44:06.279Z,14.29
2022-08-06T20:46:07.683Z,14.28
2022-08-06T20:48:37.797Z,14.26
2022-08-06T20:51:04.928Z,14.16
2022-08-06T20:53:32.865Z,14.08
2022-08-06T20:55:59.669Z,14.03
2022-08-06T20:58:26.056Z,14.00
2022-08-06T21:00:59.305Z,13.98
2022-08-06T21:05:09.945Z,13.94
2022-08-06T21:06:12.114Z,13.90
2022-08-06T21:08:38.989Z,13.91
2022-08-06T21:11:05.459Z,13.85
2022-08-06T21:13:36.847Z,13.84
2022-08-06T21:16:28.682Z,13.82
2022-08-06T21:19:00.410Z,13.70
2022-08-06T21:21:27.107Z,13.54
2022-08-06T21:23:58.159Z,13.57
2022-08-06T21:26:29.657Z,13.59
2022-08-06T21:29:01.613Z,13.40
2022-08-06T21:31:48.146Z,13.15
2022-08-06T21:34:15.365Z,12.94
2022-08-06T21:36:42.247Z,12.94
2022-08-06T21:39:12.976Z,12.85
2022-08-06T21:41:54.677Z,12.86
2022-08-06T21:44:27.750Z,12.88
2022-08-06T21:46:58.636Z,12.86
2022-08-06T21:50:04.650Z,12.78
2022-08-06T21:52:28.140Z,12.91
2022-08-06T21:55:05.714Z,12.90
2022-08-06T21:57:47.680Z,12.70
2022-08-06T22:00:34.129Z,12.49
2022-08-06T22:03:02.472Z,12.29
2022-08-06T22:06:20.934Z,12.30
2022-08-06T22:08:20.679Z,12.27
2022-08-06T22:10:52.753Z,12.19
2022-08-06T22:13:24.360Z,12.21
2022-08-06T22:15:55.437Z,12.08
2022-08-06T22:18:28.611Z,11.92
2022-08-06T22:20:59.441Z,11.90
2022-08-06T22:23:28.724Z,11.86
2022-08-06T22:25:56.453Z,11.88
2022-08-06T22:28:24.019Z,11.79
2022-08-06T22:31:05.552Z,11.87
2022-08-06T22:33:58.267Z,11.81
2022-08-06T22:38:19.554Z,11.70
2022-08-06T22:39:07.630Z,11.77
2022-08-06T22:41:57.325Z,11.43
2022-08-06T22:44:30.850Z,11.32
2022-08-06T22:47:03.659Z,11.20
2022-08-06T22:49:30.132Z,11.12
2022-08-06T22:52:04.377Z,11.13
2022-08-06T22:54:57.824Z,11.31
2022-08-06T22:57:17.557Z,11.38
2022-08-06T23:00:11.919Z,11.44
2022-08-06T23:02:30.464Z,11.35
2022-08-06T23:04:57.066Z,11.22
2022-08-06T23:07:25.556Z,11.34
2022-08-06T23:09:54.421Z,11.50
2022-08-06T23:12:36.483Z,11.53
2022-08-06T23:15:29.705Z,11.48
2022-08-06T23:17:56.529Z,11.36
2022-08-06T23:20:34.785Z,11.28
2022-08-06T23:23:02.283Z,11.02
2022-08-06T23:26:02.605Z,11.03
2022-08-06T23:28:24.374Z,11.05
2022-08-06T23:30:54.847Z,10.94
2022-08-06T23:33:21.177Z,10.84
2022-08-06T23:35:48.864Z,10.91
2022-08-06T23:38:31.784Z,11.06
2022-08-06T23:41:01.027Z,11.12
2022-08-06T23:43:34.374Z,11.21
2022-08-06T23:46:02.419Z,11.19
2022-08-06T23:48:30.611Z,11.11
2022-08-06T23:50:58.802Z,11.11
2022-08-06T23:54:08.383Z,11.10
2022-08-06T23:56:18.317Z,11.09
2022-08-06T23:58:48.568Z,11.17
